Time;durP1;ratioP1;P1;durP2;ratioP2;P2;SDS_P1;SDS_P2;PMS_P1;PMS_P2;Temp;Humidity;BMP_temperature;BMP_pressure;BME280_temperature;BME280_humidity;BME280_pressure;Samples;Min_cycle;Max_cycle;Signal;HPM_P1;HPM_P2
2021/05/21 00:00:11;;;;;;;2.97;0.88;;;13.30;63.30;;;;;;5056201;28;20044;-35
2021/05/21 00:02:36;;;;;;;1.70;1.02;;;13.20;63.10;;;;;;5056173;28;20377;-35
2021/05/21 00:05:03;;;;;;;2.65;1.20;;;13.20;63.20;;;;;;5056252;28;20021;-35
2021/05/21 00:07:28;;;;;;;1.23;1.00;;;13.30;62.80;;;;;;5055777;28;20036;-35
2021/05/21 00:09:54;;;;;;;0.68;0.65;;;13.30;62.70;;;;;;5055956;28;20458;-34
2021/05/21 00:12:20;;;;;;;2.45;1.00;;;13.30;62.90;;;;;;5056104;28;20033;-34
2021/05/21 00:14:45;;;;;;;6.05;1.10;;;13.10;63.30;;;;;;5055851;28;20450;-35
2021/05/21 00:17:11;;;;;;;2.65;0.90;;;13.00;63.80;;;;;;5054353;28;20025;-34
2021/05/21 00:19:36;;;;;;;1.55;1.00;;;13.20;63.30;;;;;;5055535;28;20025;-35
2021/05/21 00:22:02;;;;;;;1.77;1.17;;;13.10;63.70;;;;;;5055577;28;20461;-34
2021/05/21 00:24:28;;;;;;;2.20;1.35;;;12.90;64.40;;;;;;5055753;28;20021;-35
2021/05/21 00:26:53;;;;;;;0.85;0.73;;;12.90;64.10;;;;;;5054162;28;20048;-34
2021/05/21 00:29:19;;;;;;;1.55;1.20;;;13.00;64.10;;;;;;5055675;28;20025;-34
2021/05/21 00:31:45;;;;;;;3.65;2.00;;;12.90;64.30;;;;;;5055435;28;20460;-34
2021/05/21 00:34:10;;;;;;;3.58;1.00;;;12.80;64.70;;;;;;5056035;28;20373;-36
2021/05/21 00:36:36;;;;;;;2.75;1.00;;;13.10;63.50;;;;;;5055160;28;20078;-35
2021/05/21 00:39:03;;;;;;;1.38;1.17;;;13.10;63.70;;;;;;5055232;28;20025;-35
2021/05/21 00:41:29;;;;;;;4.80;1.60;;;13.10;63.50;;;;;;5055463;28;20022;-35
2021/05/21 00:43:56;;;;;;;2.33;1.30;;;13.30;62.80;;;;;;5055472;28;20476;-35
2021/05/21 00:46:22;;;;;;;2.67;1.15;;;13.30;62.50;;;;;;5055336;28;20029;-35
2021/05/21 00:48:47;;;;;;;1.88;0.98;;;13.30;62.40;;;;;;5055312;28;20031;-35
2021/05/21 00:51:13;;;;;;;2.78;1.10;;;13.30;62.60;;;;;;5054858;28;20103;-35
2021/05/21 00:53:40;;;;;;;3.80;1.55;;;13.30;63.20;;;;;;5055123;28;20025;-35
2021/05/21 00:56:08;;;;;;;1.25;0.95;;;13.10;63.50;;;;;;5055167;28;20417;-35
2021/05/21 00:58:35;;;;;;;1.15;1.02;;;13.30;63.10;;;;;;5054855;28;20121;-35
2021/05/21 01:01:01;;;;;;;4.47;1.00;;;13.20;62.80;;;;;;5054565;28;20028;-35
2021/05/21 01:03:26;;;;;;;1.25;0.90;;;13.20;63.30;;;;;;5054785;28;20025;-35
2021/05/21 01:05:52;;;;;;;4.45;0.85;;;13.00;63.90;;;;;;5054575;28;20370;-35
2021/05/21 01:08:18;;;;;;;2.75;0.90;;;13.00;63.80;;;;;;5054794;28;20508;-35
2021/05/21 01:10:45;;;;;;;2.70;1.20;;;13.00;63.60;;;;;;5053068;28;20025;-35
2021/05/21 01:13:12;;;;;;;2.80;1.08;;;13.10;63.00;;;;;;5054451;28;20021;-34
2021/05/21 01:15:39;;;;;;;3.08;1.10;;;13.00;64.00;;;;;;5053232;28;20021;-34
2021/05/21 01:18:07;;;;;;;3.47;1.52;;;13.00;63.80;;;;;;5054115;28;20017;-34
2021/05/21 01:20:33;;;;;;;2.83;0.80;;;13.00;64.00;;;;;;5052793;28;20615;-35
2021/05/21 01:23:00;;;;;;;1.58;0.88;;;12.90;64.00;;;;;;5054597;28;20018;-34
2021/05/21 01:25:27;;;;;;;1.83;0.75;;;13.00;64.00;;;;;;5054276;28;20419;-34
2021/05/21 01:27:55;;;;;;;3.42;1.10;;;12.90;64.00;;;;;;5054150;28;20025;-34
2021/05/21 01:30:22;;;;;;;2.50;0.93;;;13.00;64.00;;;;;;5054200;28;20071;-34
2021/05/21 01:32:48;;;;;;;2.42;1.48;;;12.90;64.20;;;;;;5053282;28;20080;-35
2021/05/21 01:35:19;;;;;;;3.63;0.98;;;12.80;64.30;;;;;;5054152;28;20432;-34
2021/05/21 01:37:47;;;;;;;1.48;0.80;;;12.80;64.70;;;;;;5054433;28;20473;-34
2021/05/21 01:40:13;;;;;;;2.03;0.82;;;12.80;64.80;;;;;;5053964;28;20029;-34
2021/05/21 01:42:40;;;;;;;1.80;0.77;;;12.80;64.90;;;;;;5054338;28;20025;-36
2021/05/21 01:45:07;;;;;;;0.70;0.70;;;12.80;64.70;;;;;;5053625;28;20029;-35
2021/05/21 01:47:33;;;;;;;2.83;1.20;;;12.90;64.40;;;;;;5053976;28;20017;-34
2021/05/21 01:50:00;;;;;;;5.57;1.30;;;12.80;64.70;;;;;;5053910;28;20481;-34
2021/05/21 01:52:25;;;;;;;4.28;0.80;;;12.80;65.10;;;;;;5053756;28;20053;-35
2021/05/21 01:54:51;;;;;;;3.45;1.30;;;12.80;65.00;;;;;;5054091;28;20078;-34
2021/05/21 01:57:16;;;;;;;1.08;0.90;;;12.80;64.50;;;;;;5053852;28;20389;-34
2021/05/21 01:59:42;;;;;;;1.70;1.10;;;12.80;64.30;;;;;;5053892;28;20021;-35
2021/05/21 02:02:09;;;;;;;3.65;1.10;;;12.80;64.60;;;;;;5053936;28;20107;-35
2021/05/21 02:04:40;;;;;;;1.48;1.08;;;12.80;65.00;;;;;;5054053;28;20053;-34
2021/05/21 02:07:09;;;;;;;1.48;0.90;;;12.80;65.10;;;;;;5053898;28;20017;-34
2021/05/21 02:09:44;;;;;;;3.57;1.17;;;12.80;65.20;;;;;;5053648;28;20035;-35
2021/05/21 02:12:10;;;;;;;3.28;1.10;;;12.60;65.60;;;;;;5053775;28;20029;-34
2021/05/21 02:14:36;;;;;;;2.55;1.55;;;12.50;66.10;;;;;;5053564;28;20031;-35
2021/05/21 02:17:02;;;;;;;3.22;1.58;;;12.60;65.80;;;;;;5053424;28;20095;-35
2021/05/21 02:19:27;;;;;;;2.85;1.15;;;12.70;65.40;;;;;;5053556;28;20111;-35
2021/05/21 02:21:53;;;;;;;2.40;1.17;;;12.70;65.40;;;;;;5054396;28;20025;-35
2021/05/21 02:24:19;;;;;;;1.17;0.80;;;12.80;64.90;;;;;;5053672;28;20017;-35
2021/05/21 02:26:44;;;;;;;0.80;0.80;;;12.80;65.10;;;;;;5035521;28;20025;-35
2021/05/21 02:29:10;;;;;;;2.83;0.98;;;12.70;65.50;;;;;;5053301;28;20036;-35
2021/05/21 02:31:36;;;;;;;1.67;0.88;;;12.80;65.30;;;;;;5053603;28;20033;-35
2021/05/21 02:34:02;;;;;;;2.97;1.08;;;12.80;64.80;;;;;;5053407;28;20029;-36
2021/05/21 02:36:28;;;;;;;2.70;1.20;;;12.80;65.10;;;;;;5053218;28;20029;-35
2021/05/21 02:38:54;;;;;;;1.98;1.35;;;12.70;65.50;;;;;;5053236;28;20393;-34
2021/05/21 02:41:20;;;;;;;7.40;1.52;;;12.70;65.50;;;;;;5053519;28;20031;-34
2021/05/21 02:43:46;;;;;;;2.50;0.70;;;12.80;65.10;;;;;;5053156;28;20029;-35
2021/05/21 02:46:11;;;;;;;4.88;1.08;;;12.80;64.90;;;;;;5053210;28;20530;-34
2021/05/21 02:48:37;;;;;;;2.10;0.85;;;12.80;64.90;;;;;;5053205;28;20104;-34
2021/05/21 02:51:03;;;;;;;1.65;0.93;;;12.80;64.80;;;;;;5053228;28;20077;-35
2021/05/21 02:53:28;;;;;;;5.30;1.55;;;12.80;64.80;;;;;;5053332;28;20424;-34
2021/05/21 02:55:54;;;;;;;1.75;0.70;;;13.00;64.50;;;;;;5053337;28;20100;-34
2021/05/21 02:58:20;;;;;;;5.93;1.00;;;12.90;64.30;;;;;;5054923;28;20082;-34
2021/05/21 03:00:46;;;;;;;2.25;0.40;;;12.90;64.70;;;;;;5057147;28;20033;-34
2021/05/21 03:03:12;;;;;;;3.25;0.93;;;12.80;64.80;;;;;;5057493;28;20028;-35
2021/05/21 03:05:37;;;;;;;4.00;1.20;;;12.80;64.80;;;;;;5057109;28;20530;-34
2021/05/21 03:08:03;;;;;;;3.70;1.15;;;12.70;65.40;;;;;;5057295;28;20033;-34
2021/05/21 03:10:29;;;;;;;2.25;1.00;;;12.70;65.30;;;;;;5055852;28;20056;-35
2021/05/21 03:12:55;;;;;;;7.07;3.75;;;12.60;65.70;;;;;;5056998;28;20468;-34
2021/05/21 03:15:23;;;;;;;4.32;1.20;;;12.50;66.10;;;;;;5056894;28;20040;-34
2021/05/21 03:17:48;;;;;;;3.08;1.55;;;12.60;66.00;;;;;;5057010;28;20025;-34
2021/05/21 03:20:16;;;;;;;3.75;1.30;;;12.60;66.00;;;;;;5055449;28;20036;-34
2021/05/21 03:22:42;;;;;;;4.43;1.10;;;12.60;66.10;;;;;;5056991;28;20028;-34
2021/05/21 03:25:08;;;;;;;1.05;0.88;;;12.50;66.10;;;;;;5056619;28;20384;-34
2021/05/21 03:27:34;;;;;;;1.92;1.05;;;12.50;66.20;;;;;;5056474;28;20025;-34
2021/05/21 03:30:01;;;;;;;4.40;1.60;;;12.50;66.60;;;;;;5056704;28;20491;-35
2021/05/21 03:32:27;;;;;;;4.43;1.05;;;12.50;66.50;;;;;;5056752;28;20414;-34
2021/05/21 03:34:54;;;;;;;1.38;1.00;;;12.50;66.50;;;;;;5056758;28;20025;-34
2021/05/21 03:37:19;;;;;;;2.33;1.15;;;12.40;66.80;;;;;;5056717;28;20029;-35
2021/05/21 03:39:45;;;;;;;1.98;1.00;;;12.50;66.50;;;;;;5056620;28;20033;-35
2021/05/21 03:42:12;;;;;;;3.85;0.80;;;12.40;66.90;;;;;;5056822;28;20021;-35
2021/05/21 03:44:38;;;;;;;2.08;1.15;;;12.30;67.30;;;;;;5056507;28;20520;-34
2021/05/21 03:47:04;;;;;;;3.50;1.73;;;12.40;67.30;;;;;;5056280;28;20063;-34
2021/05/21 03:49:30;;;;;;;2.13;1.02;;;12.40;66.90;;;;;;5056160;28;20021;-35
2021/05/21 03:51:56;;;;;;;3.53;1.77;;;12.50;66.90;;;;;;5055463;28;20469;-34
2021/05/21 03:54:22;;;;;;;3.92;1.10;;;12.60;66.80;;;;;;5055147;28;20039;-34
2021/05/21 03:56:49;;;;;;;4.93;1.15;;;12.80;65.70;;;;;;5055017;28;20061;-34
2021/05/21 03:59:15;;;;;;;0.85;0.70;;;12.80;65.70;;;;;;5053611;28;20083;-34
2021/05/21 04:01:40;;;;;;;3.80;1.13;;;12.80;65.80;;;;;;5054970;28;20408;-34
2021/05/21 04:04:06;;;;;;;4.75;0.80;;;12.80;65.60;;;;;;5055123;28;20035;-34
2021/05/21 04:06:32;;;;;;;3.35;2.15;;;12.80;65.50;;;;;;5054565;28;20107;-34
2021/05/21 04:08:59;;;;;;;3.55;1.00;;;12.80;65.30;;;;;;5054444;28;20163;-34
2021/05/21 04:11:25;;;;;;;2.05;1.10;;;12.80;65.40;;;;;;5054891;28;20024;-34
2021/05/21 04:13:51;;;;;;;1.23;0.80;;;12.80;65.80;;;;;;5055073;28;20032;-34
2021/05/21 04:16:16;;;;;;;2.67;1.02;;;12.90;65.40;;;;;;5054497;28;20036;-35
2021/05/21 04:18:42;;;;;;;3.80;0.95;;;12.90;65.20;;;;;;5054668;28;20037;-34
2021/05/21 04:21:08;;;;;;;0.98;0.70;;;12.90;65.30;;;;;;5054953;28;20021;-34
2021/05/21 04:23:39;;;;;;;6.60;1.00;;;12.90;65.70;;;;;;5055026;28;20017;-34
2021/05/21 04:26:04;;;;;;;2.88;0.90;;;12.90;65.60;;;;;;5054393;28;20027;-34
2021/05/21 04:28:30;;;;;;;3.60;1.30;;;13.10;64.90;;;;;;5054676;28;20021;-35
2021/05/21 04:30:56;;;;;;;3.80;0.95;;;13.20;64.50;;;;;;5054216;28;20120;-34
2021/05/21 04:33:21;;;;;;;3.30;1.13;;;13.30;64.10;;;;;;5054572;28;20055;-34
2021/05/21 04:35:47;;;;;;;2.47;1.00;;;13.30;63.80;;;;;;5054589;28;20021;-34
2021/05/21 04:38:13;;;;;;;1.75;0.82;;;13.40;63.40;;;;;;5054233;28;20017;-34
2021/05/21 04:40:38;;;;;;;4.22;0.88;;;13.40;63.90;;;;;;5054169;28;20025;-37
2021/05/21 04:43:04;;;;;;;7.05;0.82;;;13.40;63.90;;;;;;5054773;28;20028;-34
2021/05/21 04:45:30;;;;;;;3.85;1.30;;;13.40;63.60;;;;;;5053965;28;20022;-34
2021/05/21 04:47:55;;;;;;;4.68;0.90;;;13.50;63.40;;;;;;5053975;28;20024;-34
2021/05/21 04:50:21;;;;;;;1.50;0.97;;;13.60;63.00;;;;;;5031150;28;648004;-36
2021/05/21 04:52:48;;;;;;;1.55;0.82;;;13.70;62.60;;;;;;5055258;28;20515;-36
2021/05/21 04:55:14;;;;;;;1.38;1.13;;;13.70;63.00;;;;;;5053685;28;20533;-34
2021/05/21 04:57:39;;;;;;;7.80;1.25;;;13.70;62.90;;;;;;5053832;28;20071;-34
2021/05/21 05:00:06;;;;;;;6.40;1.27;;;13.80;63.10;;;;;;5054922;28;20061;-34
2021/05/21 05:02:31;;;;;;;4.30;1.88;;;13.60;63.20;;;;;;5054756;28;20017;-34
2021/05/21 05:04:57;;;;;;;6.53;1.15;;;13.70;63.30;;;;;;5054813;28;20025;-34
2021/05/21 05:07:22;;;;;;;6.35;1.35;;;13.80;63.60;;;;;;5054826;28;20024;-34
2021/05/21 05:09:48;;;;;;;1.70;1.10;;;13.80;62.90;;;;;;5054619;28;20021;-34
2021/05/21 05:12:14;;;;;;;4.35;0.70;;;13.70;63.20;;;;;;5055186;28;20024;-36
2021/05/21 05:14:40;;;;;;;3.47;1.27;;;13.80;63.20;;;;;;5054285;28;20070;-34
2021/05/21 05:17:05;;;;;;;3.40;1.50;;;13.80;63.00;;;;;;5054568;28;20033;-34
2021/05/21 05:19:31;;;;;;;1.55;0.75;;;13.80;63.20;;;;;;5053513;28;20029;-34
2021/05/21 05:21:58;;;;;;;2.65;0.90;;;13.80;63.10;;;;;;5054720;28;20036;-38
2021/05/21 05:24:24;;;;;;;3.63;0.90;;;13.70;63.50;;;;;;5052669;28;20024;-36
2021/05/21 05:26:51;;;;;;;2.80;1.15;;;13.80;63.50;;;;;;5052527;28;20025;-36
2021/05/21 05:29:16;;;;;;;3.13;0.93;;;13.80;63.30;;;;;;5054001;28;20056;-35
2021/05/21 05:31:46;;;;;;;3.80;0.82;;;13.70;63.80;;;;;;5052952;28;20162;-35
2021/05/21 05:34:12;;;;;;;4.78;1.17;;;13.60;64.00;;;;;;5053908;28;20032;-35
2021/05/21 05:36:38;;;;;;;5.22;1.30;;;13.60;64.20;;;;;;5054108;28;20037;-35
2021/05/21 05:39:05;;;;;;;3.15;1.20;;;13.80;63.60;;;;;;5054090;28;20025;-36
2021/05/21 05:41:31;;;;;;;1.75;0.98;;;13.80;63.10;;;;;;5054028;28;20024;-35
2021/05/21 05:43:57;;;;;;;3.92;1.52;;;13.80;63.40;;;;;;5054771;28;20025;-35
2021/05/21 05:46:23;;;;;;;3.08;1.00;;;13.80;63.20;;;;;;5052937;28;20028;-35
2021/05/21 05:48:50;;;;;;;3.65;1.00;;;13.80;63.60;;;;;;5053615;28;20039;-36
2021/05/21 05:51:16;;;;;;;1.20;1.13;;;13.80;63.80;;;;;;5053881;28;20048;-35
2021/05/21 05:53:41;;;;;;;2.05;0.90;;;13.90;63.20;;;;;;5053560;28;20040;-35
2021/05/21 05:56:08;;;;;;;5.03;1.08;;;13.80;63.70;;;;;;5053665;28;20025;-35
2021/05/21 05:58:33;;;;;;;4.28;1.20;;;13.80;63.80;;;;;;5053516;28;20025;-35
2021/05/21 06:00:59;;;;;;;4.93;1.00;;;13.70;63.70;;;;;;5052188;28;20023;-35
2021/05/21 06:03:28;;;;;;;6.80;1.25;;;13.70;63.90;;;;;;5053997;28;20032;-35
2021/05/21 06:05:58;;;;;;;2.53;0.75;;;13.70;64.20;;;;;;5053525;28;20032;-34
2021/05/21 06:08:24;;;;;;;3.13;1.17;;;13.70;64.20;;;;;;5051840;28;20031;-34
2021/05/21 06:10:51;;;;;;;3.42;1.55;;;13.70;64.60;;;;;;5053122;28;20115;-34
2021/05/21 06:13:21;;;;;;;3.10;1.20;;;13.70;64.40;;;;;;5053034;28;20481;-36
2021/05/21 06:15:47;;;;;;;2.70;1.58;;;13.70;63.90;;;;;;5051602;28;20043;-34
2021/05/21 06:18:12;;;;;;;3.10;1.10;;;13.70;63.90;;;;;;5053194;28;20468;-34
2021/05/21 06:20:38;;;;;;;2.83;1.40;;;13.80;64.00;;;;;;5052906;28;20385;-34
2021/05/21 06:23:06;;;;;;;2.63;0.73;;;13.70;64.30;;;;;;5053629;28;20017;-35
2021/05/21 06:28:25;;;;;;;5.28;1.10;;;13.80;64.00;;;;;;5060036;28;20039;-35
2021/05/21 06:30:52;;;;;;;2.85;1.23;;;13.90;63.60;;;;;;5052370;28;20127;-35
2021/05/21 06:33:18;;;;;;;4.60;1.30;;;13.90;63.80;;;;;;5052412;28;20036;-35
2021/05/21 06:35:46;;;;;;;5.25;1.70;;;14.00;63.50;;;;;;5052468;28;20037;-35
2021/05/21 06:38:12;;;;;;;4.95;1.13;;;14.20;63.10;;;;;;5052693;28;20033;-35
2021/05/21 06:40:37;;;;;;;1.85;1.27;;;14.20;62.80;;;;;;5051222;28;20021;-35
2021/05/21 06:43:10;;;;;;;7.25;1.15;;;14.10;63.00;;;;;;5052522;28;20021;-35
2021/05/21 06:45:37;;;;;;;2.80;0.75;;;14.10;62.80;;;;;;5052564;28;20025;-35
2021/05/21 06:48:03;;;;;;;9.00;1.30;;;14.20;62.90;;;;;;5051189;28;20029;-35
2021/05/21 06:50:29;;;;;;;4.93;1.40;;;14.30;62.80;;;;;;5052204;28;20172;-34
2021/05/21 06:52:55;;;;;;;4.90;1.33;;;14.50;62.00;;;;;;5052773;28;20097;-35
2021/05/21 06:55:21;;;;;;;6.07;1.48;;;14.30;62.20;;;;;;5052329;28;20029;-36
2021/05/21 06:57:46;;;;;;;3.85;1.42;;;14.50;62.50;;;;;;5052833;28;20035;-36
2021/05/21 07:00:12;;;;;;;2.17;1.30;;;14.50;61.70;;;;;;5052137;28;20033;-36
2021/05/21 07:02:38;;;;;;;7.28;1.52;;;14.60;61.80;;;;;;5052063;28;20485;-35
2021/05/21 07:05:04;;;;;;;7.13;1.80;;;14.60;61.90;;;;;;5052233;28;20079;-35
2021/05/21 07:07:31;;;;;;;6.10;1.63;;;14.60;62.30;;;;;;5051771;28;20025;-35
2021/05/21 07:09:57;;;;;;;4.97;2.70;;;14.70;61.60;;;;;;5051771;28;20072;-35
2021/05/21 07:12:23;;;;;;;8.32;1.73;;;15.30;59.80;;;;;;5051642;28;20493;-35
2021/05/21 07:14:49;;;;;;;6.28;1.27;;;15.00;60.30;;;;;;5051666;28;20079;-35
2021/05/21 07:17:14;;;;;;;9.75;1.85;;;15.10;59.50;;;;;;5051663;28;20025;-37
2021/05/21 07:19:40;;;;;;;8.25;2.60;;;14.80;60.30;;;;;;5051438;28;20036;-35
2021/05/21 07:22:06;;;;;;;5.15;1.23;;;14.80;60.70;;;;;;5051571;28;20385;-35
2021/05/21 07:24:32;;;;;;;6.78;1.48;;;14.80;59.90;;;;;;5052243;28;20052;-35
2021/05/21 07:26:58;;;;;;;7.05;1.63;;;14.90;58.90;;;;;;5051611;28;20029;-35
2021/05/21 07:29:24;;;;;;;6.97;1.77;;;15.50;57.50;;;;;;5052497;28;20033;-35
2021/05/21 07:31:49;;;;;;;9.25;1.42;;;15.30;58.00;;;;;;5051910;28;20474;-35
2021/05/21 07:34:15;;;;;;;6.00;1.40;;;14.80;58.60;;;;;;5050558;28;20033;-36
2021/05/21 07:36:41;;;;;;;5.43;1.95;;;14.60;60.20;;;;;;5051502;28;20033;-35
2021/05/21 07:39:07;;;;;;;6.03;1.63;;;14.70;60.50;;;;;;5052126;28;20067;-35
2021/05/21 07:41:33;;;;;;;6.38;2.28;;;14.80;59.90;;;;;;5051892;28;20017;-35
2021/05/21 07:43:59;;;;;;;11.85;2.28;;;14.70;59.90;;;;;;5052724;28;20036;-35
2021/05/21 07:46:28;;;;;;;11.82;2.90;;;14.90;59.20;;;;;;5055382;28;20032;-35
2021/05/21 07:48:56;;;;;;;9.50;2.35;;;15.10;58.60;;;;;;5055455;28;20064;-35
2021/05/21 07:51:22;;;;;;;6.45;2.70;;;15.60;56.60;;;;;;5053549;28;20382;-36
2021/05/21 07:53:48;;;;;;;5.32;2.28;;;16.20;54.90;;;;;;5054828;28;20029;-35
2021/05/21 07:56:14;;;;;;;9.45;1.80;;;16.40;54.00;;;;;;5055106;28;20074;-35
2021/05/21 07:58:40;;;;;;;11.38;2.95;;;16.80;51.80;;;;;;5055141;28;20025;-35
2021/05/21 08:01:06;;;;;;;8.05;2.95;;;16.20;51.60;;;;;;5055085;28;20488;-36
2021/05/21 08:03:32;;;;;;;6.95;2.67;;;15.60;53.60;;;;;;5054928;28;20265;-34
2021/05/21 08:05:59;;;;;;;11.38;4.05;;;15.40;54.30;;;;;;5055607;28;20050;-36
2021/05/21 08:08:24;;;;;;;19.20;3.35;;;15.10;55.20;;;;;;5054987;28;20123;-35
2021/05/21 08:10:52;;;;;;;13.35;3.40;;;15.50;54.10;;;;;;5055794;28;20330;-36
2021/05/21 08:13:18;;;;;;;8.57;2.40;;;15.80;53.90;;;;;;5055107;28;20020;-34
2021/05/21 08:15:44;;;;;;;8.10;2.10;;;15.60;55.00;;;;;;5055149;28;20033;-35
2021/05/21 08:18:10;;;;;;;6.60;1.92;;;15.70;52.10;;;;;;5055126;28;20094;-36
2021/05/21 08:20:36;;;;;;;6.43;1.92;;;16.10;50.90;;;;;;5054595;28;20025;-35
2021/05/21 08:23:02;;;;;;;6.97;1.13;;;16.10;50.40;;;;;;5053389;28;20025;-34
2021/05/21 08:25:28;;;;;;;9.00;2.67;;;15.90;51.10;;;;;;5054959;28;20051;-36
2021/05/21 08:27:54;;;;;;;10.60;2.58;;;16.30;51.00;;;;;;5055369;28;20028;-37
2021/05/21 08:30:21;;;;;;;9.32;1.95;;;16.40;49.30;;;;;;5055039;28;20047;-36
2021/05/21 08:32:49;;;;;;;6.53;1.70;;;15.80;51.20;;;;;;5053457;28;20029;-35
2021/05/21 08:35:15;;;;;;;11.90;2.80;;;15.40;51.50;;;;;;5054957;28;20424;-36
2021/05/21 08:37:41;;;;;;;13.85;2.58;;;15.00;51.90;;;;;;5054518;28;20025;-36
2021/05/21 08:40:08;;;;;;;14.07;4.50;;;15.60;50.40;;;;;;5053601;28;20171;-35
2021/05/21 08:42:39;;;;;;;5.53;2.63;;;16.30;48.70;;;;;;5053914;28;20057;-35
2021/05/21 08:45:09;;;;;;;8.35;2.45;;;16.40;47.30;;;;;;5054123;28;20534;-34
2021/05/21 08:47:36;;;;;;;12.82;2.60;;;16.30;47.40;;;;;;5054353;28;20047;-34
2021/05/21 08:50:12;;;;;;;11.38;2.13;;;16.30;47.80;;;;;;5054748;28;20064;-37
2021/05/21 08:52:38;;;;;;;10.00;3.55;;;17.30;45.80;;;;;;5053374;28;20040;-35
2021/05/21 08:55:07;;;;;;;10.30;1.98;;;17.00;45.10;;;;;;5051739;28;20053;-35
2021/05/21 08:57:33;;;;;;;12.18;2.85;;;17.10;43.80;;;;;;5054122;28;20059;-35
2021/05/21 08:59:59;;;;;;;17.00;2.60;;;16.30;46.30;;;;;;5053653;28;20033;-35
2021/05/21 09:02:26;;;;;;;11.85;2.83;;;16.30;46.20;;;;;;5053792;28;20027;-35
2021/05/21 09:05:00;;;;;;;6.65;2.13;;;16.20;46.40;;;;;;5052534;28;20032;-35
2021/05/21 09:07:32;;;;;;;7.13;2.15;;;15.70;44.80;;;;;;5053979;28;20029;-35
2021/05/21 09:10:04;;;;;;;7.85;2.20;;;15.30;47.10;;;;;;5053910;28;20025;-35
2021/05/21 09:12:38;;;;;;;12.00;2.78;;;15.30;47.70;;;;;;5054284;28;20094;-35
2021/05/21 09:15:06;;;;;;;6.95;2.33;;;15.50;48.10;;;;;;5052774;28;20079;-36
2021/05/21 09:17:32;;;;;;;11.30;3.20;;;16.20;45.40;;;;;;5054393;28;20028;-35
2021/05/21 09:19:58;;;;;;;15.00;2.65;;;16.50;44.80;;;;;;5054533;28;20381;-37
2021/05/21 09:22:24;;;;;;;6.82;2.55;;;16.50;44.30;;;;;;5053789;28;20368;-36
2021/05/21 09:24:50;;;;;;;9.73;2.78;;;16.10;44.90;;;;;;5053568;28;20021;-35
2021/05/21 09:27:18;;;;;;;13.40;2.47;;;15.80;44.00;;;;;;5053118;28;20108;-35
2021/05/21 09:29:48;;;;;;;13.98;3.13;;;15.50;44.90;;;;;;5053352;28;20040;-36
2021/05/21 09:32:23;;;;;;;16.75;2.63;;;15.20;45.70;;;;;;5053491;28;20400;-36
2021/05/21 09:35:02;;;;;;;10.57;2.42;;;15.10;47.40;;;;;;5053110;28;20112;-36
2021/05/21 09:37:28;;;;;;;13.02;3.58;;;15.30;46.80;;;;;;5053843;28;20064;-36
2021/05/21 09:40:32;;;;;;;9.32;2.45;;;15.50;46.30;;;;;;5053073;28;20438;-34
2021/05/21 09:43:05;;;;;;;6.13;1.83;;;16.70;42.90;;;;;;5051112;28;20480;-36
2021/05/21 09:45:36;;;;;;;12.07;1.98;;;16.90;40.40;;;;;;5034395;28;20573;-34
2021/05/21 09:48:05;;;;;;;8.95;1.42;;;16.90;40.30;;;;;;5052366;28;20029;-35
2021/05/21 09:50:32;;;;;;;9.13;2.22;;;17.10;39.80;;;;;;5052111;28;20053;-35
2021/05/21 09:53:15;;;;;;;6.97;2.60;;;16.90;40.40;;;;;;5053482;28;20032;-34
2021/05/21 09:55:45;;;;;;;11.20;2.22;;;15.90;42.30;;;;;;5052894;28;20051;-35
2021/05/21 09:58:25;;;;;;;19.63;3.67;;;15.50;43.40;;;;;;5051555;28;20017;-35
2021/05/21 10:01:24;;;;;;;13.00;2.67;;;15.40;44.30;;;;;;5053117;28;20045;-35
2021/05/21 10:03:53;;;;;;;14.00;2.72;;;16.00;42.60;;;;;;5051943;28;20035;-34
2021/05/21 10:06:19;;;;;;;10.70;2.97;;;16.00;42.40;;;;;;5052986;28;20377;-36
2021/05/21 10:08:48;;;;;;;12.35;3.88;;;15.80;42.90;;;;;;5052480;28;20104;-35
2021/05/21 10:11:15;;;;;;;5.93;1.88;;;15.50;42.40;;;;;;5052642;28;20037;-35
2021/05/21 10:13:45;;;;;;;8.63;2.03;;;15.60;42.30;;;;;;5053262;28;20021;-35
2021/05/21 10:16:16;;;;;;;13.00;2.73;;;16.20;40.50;;;;;;5053077;28;20385;-35
2021/05/21 10:18:49;;;;;;;6.53;1.95;;;16.10;39.90;;;;;;5052726;28;20255;-35
2021/05/21 10:21:16;;;;;;;7.72;2.42;;;16.80;38.90;;;;;;5052556;28;20032;-35
2021/05/21 10:24:02;;;;;;;8.30;2.22;;;16.40;39.00;;;;;;5052581;28;20017;-35
2021/05/21 10:26:33;;;;;;;12.25;4.38;;;15.90;41.20;;;;;;5052897;28;20516;-36
2021/05/21 10:29:08;;;;;;;15.95;3.28;;;15.80;42.40;;;;;;5052959;28;20025;-35
2021/05/21 10:31:35;;;;;;;10.93;2.50;;;15.50;43.40;;;;;;5052139;28;20095;-35
2021/05/21 10:34:22;;;;;;;7.47;1.92;;;15.50;44.00;;;;;;5052119;28;20062;-36
2021/05/21 10:36:50;;;;;;;5.88;2.22;;;15.60;43.80;;;;;;5052634;28;20354;-35
2021/05/21 10:39:23;;;;;;;11.32;2.22;;;16.30;42.30;;;;;;5034561;28;20033;-35
2021/05/21 10:41:53;;;;;;;18.88;2.85;;;17.10;40.80;;;;;;5052837;28;20501;-35
2021/05/21 10:44:35;;;;;;;10.32;1.80;;;17.50;39.20;;;;;;5052603;28;20358;-35
2021/05/21 10:47:15;;;;;;;6.88;1.83;;;17.70;39.20;;;;;;5052530;28;20116;-34
2021/05/21 10:49:42;;;;;;;12.85;2.88;;;17.50;38.90;;;;;;5052953;28;20057;-36
2021/05/21 10:52:07;;;;;;;13.20;2.20;;;16.80;40.20;;;;;;5052315;28;20063;-38
2021/05/21 10:54:44;;;;;;;5.80;2.15;;;16.80;40.50;;;;;;5052798;28;20033;-36
2021/05/21 10:57:26;;;;;;;13.15;4.38;;;17.20;39.10;;;;;;5052207;28;20021;-35
2021/05/21 10:59:55;;;;;;;10.25;1.70;;;17.10;39.60;;;;;;5052849;28;20021;-35
2021/05/21 11:02:23;;;;;;;15.00;2.65;;;16.80;40.10;;;;;;5052907;28;20024;-36
2021/05/21 11:04:50;;;;;;;8.68;2.60;;;17.00;40.40;;;;;;5052696;28;20017;-36
2021/05/21 11:07:40;;;;;;;8.30;2.33;;;17.10;39.80;;;;;;5053039;28;20099;-36
2021/05/21 11:10:24;;;;;;;10.27;1.83;;;16.80;40.50;;;;;;5052368;28;20037;-35
2021/05/21 11:12:58;;;;;;;10.43;3.22;;;16.80;40.80;;;;;;5053124;28;20041;-36
2021/05/21 11:15:33;;;;;;;5.15;1.85;;;16.80;39.20;;;;;;5052868;28;20029;-36
2021/05/21 11:18:20;;;;;;;8.45;1.58;;;16.60;38.90;;;;;;5053725;28;20021;-35
2021/05/21 11:21:09;;;;;;;9.23;3.65;;;16.50;38.80;;;;;;5057301;28;20493;-36
2021/05/21 11:24:02;;;;;;;5.10;1.50;;;16.30;40.00;;;;;;5055341;28;20500;-35
2021/05/21 11:26:40;;;;;;;10.88;2.75;;;16.50;39.90;;;;;;5055784;28;20024;-37
2021/05/21 11:29:08;;;;;;;11.82;2.92;;;16.70;38.40;;;;;;5057060;28;20083;-35
2021/05/21 11:31:39;;;;;;;6.78;1.85;;;16.50;39.60;;;;;;5056701;28;20029;-35
2021/05/21 11:34:09;;;;;;;8.93;2.35;;;16.60;39.00;;;;;;5055244;28;20132;-36
2021/05/21 11:36:35;;;;;;;6.60;1.60;;;16.20;40.50;;;;;;5056323;28;20033;-35
2021/05/21 11:39:02;;;;;;;7.43;2.10;;;16.30;39.80;;;;;;5056257;28;20025;-35
2021/05/21 11:41:33;;;;;;;6.28;2.05;;;16.80;39.20;;;;;;5056306;28;20329;-42
2021/05/21 11:44:05;;;;;;;8.32;2.55;;;16.80;38.90;;;;;;5058174;28;20021;-34
2021/05/21 11:46:36;;;;;;;7.68;1.73;;;16.80;39.90;;;;;;5056095;28;20033;-35
2021/05/21 11:49:19;;;;;;;7.38;1.83;;;16.60;38.40;;;;;;5056346;28;20033;-35
2021/05/21 11:52:07;;;;;;;12.68;2.22;;;17.40;37.30;;;;;;5055990;28;20041;-36
2021/05/21 11:54:38;;;;;;;6.30;2.10;;;18.70;35.50;;;;;;5056422;28;20381;-36
2021/05/21 11:57:07;;;;;;;13.57;2.63;;;17.90;34.90;;;;;;5056191;28;20025;-37
2021/05/21 11:59:33;;;;;;;9.30;2.85;;;17.30;36.30;;;;;;5056059;28;20444;-35
2021/05/21 12:02:05;;;;;;;12.07;1.98;;;17.20;36.50;;;;;;5054741;28;20052;-36
2021/05/21 12:04:33;;;;;;;8.88;2.72;;;16.70;37.20;;;;;;5056010;28;20017;-35
2021/05/21 12:06:59;;;;;;;16.10;2.38;;;17.00;37.00;;;;;;5056230;28;20074;-35
2021/05/21 12:09:25;;;;;;;9.52;2.75;;;16.90;37.60;;;;;;5055760;28;20489;-35
2021/05/21 12:11:53;;;;;;;5.25;2.08;;;16.60;38.00;;;;;;5055876;28;20021;-35
2021/05/21 12:14:22;;;;;;;5.97;1.35;;;17.00;36.20;;;;;;5055908;28;20098;-35
2021/05/21 12:16:50;;;;;;;6.72;2.15;;;17.10;36.00;;;;;;5055622;28;20496;-35
2021/05/21 12:19:18;;;;;;;9.05;2.20;;;17.20;36.20;;;;;;5055697;28;20112;-35
2021/05/21 12:21:48;;;;;;;7.75;1.48;;;17.10;35.60;;;;;;5055561;28;20021;-36
2021/05/21 12:24:16;;;;;;;;;;;17.10;36.30;;;;;;5056484;28;20021;-36
2021/05/21 12:26:44;;;;;;;5.43;1.33;;;17.00;36.60;;;;;;5055464;28;19991;-35
2021/05/21 12:29:11;;;;;;;8.05;1.88;;;17.20;36.70;;;;;;5055183;28;20025;-36
2021/05/21 12:31:41;;;;;;;7.15;1.35;;;18.10;34.40;;;;;;5055642;28;20048;-35
2021/05/21 12:34:06;;;;;;;10.68;2.42;;;18.20;34.40;;;;;;5055111;28;20029;-36
2021/05/21 12:36:34;;;;;;;4.13;1.48;;;17.30;35.70;;;;;;5055225;28;20098;-35
2021/05/21 12:39:05;;;;;;;16.20;2.80;;;17.30;36.50;;;;;;5055249;28;20025;-35
2021/05/21 12:41:35;;;;;;;6.63;2.08;;;17.30;36.10;;;;;;5055795;28;20013;-35
2021/05/21 12:44:15;;;;;;;9.32;1.63;;;17.40;37.00;;;;;;5055265;28;20056;-36
2021/05/21 12:46:51;;;;;;;7.25;1.63;;;17.90;36.10;;;;;;5055561;28;20068;-36
2021/05/21 12:49:21;;;;;;;5.95;1.98;;;18.50;35.30;;;;;;5055108;28;20108;-35
2021/05/21 12:51:52;;;;;;;9.23;2.20;;;19.30;33.00;;;;;;5055257;28;20551;-35